createdAt,value
2022-07-26T00:02:05.434Z,1.65
2022-07-26T00:04:33.440Z,1.80
2022-07-26T00:07:01.604Z,1.53
2022-07-26T00:09:29.472Z,1.50
2022-07-26T00:11:58.638Z,1.67
2022-07-26T00:14:26.680Z,1.50
2022-07-26T00:16:54.661Z,1.90
2022-07-26T00:19:22.771Z,1.63
2022-07-26T00:22:11.078Z,1.87
2022-07-26T00:24:39.576Z,2.40
2022-07-26T00:27:09.188Z,2.00
2022-07-26T00:29:37.050Z,2.10
2022-07-26T00:32:05.358Z,1.63
2022-07-26T00:34:33.189Z,1.75
2022-07-26T00:37:01.041Z,1.73
2022-07-26T00:39:29.004Z,1.58
2022-07-26T00:41:56.875Z,1.97
2022-07-26T00:44:26.185Z,1.60
2022-07-26T00:46:54.100Z,1.60
2022-07-26T00:49:22.061Z,1.57
2022-07-26T00:51:49.877Z,1.83
2022-07-26T00:54:18.199Z,1.65
2022-07-26T00:56:48.324Z,1.40
2022-07-26T00:59:18.748Z,1.30
2022-07-26T01:01:48.066Z,1.23
2022-07-26T01:04:16.363Z,1.38
2022-07-26T01:06:44.307Z,1.40
2022-07-26T01:09:12.922Z,1.33
2022-07-26T01:11:40.771Z,1.70
2022-07-26T01:14:09.141Z,1.50
2022-07-26T01:16:37.277Z,1.33
2022-07-26T01:19:06.702Z,1.83
2022-07-26T01:21:35.944Z,1.37
2022-07-26T01:24:03.948Z,1.70
2022-07-26T01:26:31.844Z,1.60
2022-07-26T01:28:59.730Z,1.57
2022-07-26T01:31:27.826Z,1.60
2022-07-26T01:33:55.737Z,1.67
2022-07-26T01:36:23.691Z,1.73
2022-07-26T01:38:52.874Z,2.00
2022-07-26T01:41:21.399Z,1.70
2022-07-26T01:44:07.746Z,1.80
2022-07-26T01:46:36.249Z,1.97
2022-07-26T01:49:04.816Z,1.87
2022-07-26T01:51:32.810Z,1.70
2022-07-26T01:54:02.125Z,1.80
2022-07-26T01:56:30.215Z,1.60
2022-07-26T01:58:58.175Z,1.53
2022-07-26T02:01:38.367Z,1.63
2022-07-26T02:04:09.004Z,1.60
2022-07-26T02:06:37.552Z,1.37
2022-07-26T02:09:07.631Z,1.20
2022-07-26T02:11:38.505Z,1.20
2022-07-26T02:14:06.538Z,1.30
2022-07-26T02:16:34.591Z,1.33
2022-07-26T02:19:02.436Z,1.20
2022-07-26T02:21:30.229Z,1.00
2022-07-26T02:23:58.172Z,1.07
2022-07-26T02:26:27.381Z,1.10
2022-07-26T02:28:55.197Z,1.30
2022-07-26T02:31:23.084Z,1.10
2022-07-26T02:34:00.083Z,1.00
2022-07-26T02:36:28.082Z,1.13
2022-07-26T02:38:56.062Z,1.00
2022-07-26T02:41:24.111Z,1.03
2022-07-26T02:43:53.274Z,1.00
2022-07-26T02:46:21.169Z,1.30
2022-07-26T02:48:49.105Z,1.10
2022-07-26T02:51:17.986Z,1.27
2022-07-26T02:53:45.848Z,1.10
2022-07-26T02:56:13.915Z,1.20
2022-07-26T02:58:41.792Z,1.10
2022-07-26T03:01:11.215Z,1.10
2022-07-26T03:03:41.131Z,1.20
2022-07-26T03:06:09.489Z,1.30
2022-07-26T03:08:37.314Z,1.10
2022-07-26T03:11:08.985Z,1.00
2022-07-26T03:13:39.626Z,1.50
2022-07-26T03:16:08.913Z,1.30
2022-07-26T03:18:39.036Z,1.23
2022-07-26T03:21:07.511Z,1.20
2022-07-26T03:23:35.602Z,1.30
2022-07-26T03:26:03.973Z,1.23
2022-07-26T03:28:32.634Z,1.30
2022-07-26T03:31:01.138Z,1.30
2022-07-26T03:33:30.301Z,1.10
2022-07-26T03:35:59.505Z,1.20
2022-07-26T03:38:28.697Z,1.30
2022-07-26T03:40:56.538Z,1.37
2022-07-26T03:43:24.396Z,1.60
2022-07-26T03:45:54.618Z,1.47
2022-07-26T03:48:23.062Z,1.30
2022-07-26T03:50:51.004Z,1.30
2022-07-26T03:53:20.193Z,1.17
2022-07-26T03:56:05.854Z,1.50
2022-07-26T03:58:33.695Z,1.30
2022-07-26T04:01:01.578Z,1.67
2022-07-26T04:03:29.428Z,1.33
2022-07-26T04:05:58.995Z,1.70
2022-07-26T04:08:29.217Z,1.60
2022-07-26T04:10:57.056Z,1.60
2022-07-26T04:13:24.948Z,1.40
2022-07-26T04:15:53.136Z,1.50
2022-07-26T04:18:21.435Z,1.37
2022-07-26T04:20:52.671Z,1.40
2022-07-26T04:23:20.520Z,1.23
2022-07-26T04:25:49.752Z,1.30
2022-07-26T04:28:17.817Z,1.33
2022-07-26T04:30:46.188Z,1.60
2022-07-26T04:33:14.091Z,1.60
2022-07-26T04:35:41.959Z,1.27
2022-07-26T04:38:09.773Z,1.60
2022-07-26T04:40:40.409Z,1.47
2022-07-26T04:43:15.938Z,1.30
2022-07-26T04:45:44.394Z,1.60
2022-07-26T04:48:12.284Z,1.40
2022-07-26T04:50:40.164Z,1.43
2022-07-26T04:53:08.903Z,1.50
2022-07-26T04:55:36.710Z,1.70
2022-07-26T04:58:05.223Z,1.50
2022-07-26T05:00:46.958Z,1.60
2022-07-26T05:03:25.209Z,1.50
2022-07-26T05:05:53.565Z,1.80
2022-07-26T05:08:21.631Z,1.63
2022-07-26T05:10:54.937Z,1.63
2022-07-26T05:13:29.904Z,1.80
2022-07-26T05:16:01.793Z,1.40
2022-07-26T05:18:31.660Z,2.10
2022-07-26T05:20:59.954Z,1.77
2022-07-26T05:23:27.777Z,1.50
2022-07-26T05:25:56.428Z,1.43
2022-07-26T05:28:24.316Z,2.13
2022-07-26T05:30:52.451Z,1.80
2022-07-26T05:33:22.020Z,1.50
2022-07-26T05:35:49.916Z,1.50
2022-07-26T05:38:17.831Z,1.60
2022-07-26T05:40:50.299Z,1.60
2022-07-26T05:43:18.647Z,1.63
2022-07-26T05:45:46.580Z,1.37
2022-07-26T05:48:14.541Z,1.47
2022-07-26T05:50:43.985Z,1.93
2022-07-26T05:53:11.859Z,1.93
2022-07-26T05:55:39.740Z,1.60
2022-07-26T05:58:07.833Z,1.90
2022-07-26T06:00:35.755Z,1.60
2022-07-26T06:03:22.008Z,1.70
2022-07-26T06:05:51.828Z,1.73
2022-07-26T06:08:20.657Z,1.93
2022-07-26T06:10:49.684Z,1.97
2022-07-26T06:13:18.039Z,1.60
2022-07-26T06:15:46.286Z,1.90
2022-07-26T06:18:14.486Z,1.80
2022-07-26T06:20:43.898Z,1.40
2022-07-26T06:23:13.755Z,1.50
2022-07-26T06:25:42.487Z,1.23
2022-07-26T06:28:11.819Z,1.60
2022-07-26T06:30:40.085Z,1.30
2022-07-26T06:33:09.637Z,1.60
2022-07-26T06:35:39.235Z,1.50
2022-07-26T06:38:07.729Z,1.40
2022-07-26T06:40:37.474Z,1.77
2022-07-26T06:43:05.441Z,1.30
2022-07-26T06:45:34.026Z,1.60
2022-07-26T06:48:02.250Z,1.60
2022-07-26T06:50:30.202Z,1.70
2022-07-26T06:52:58.107Z,1.60
2022-07-26T06:55:26.015Z,1.53
2022-07-26T06:57:55.673Z,1.70
2022-07-26T07:00:23.779Z,1.43
2022-07-26T07:02:51.731Z,1.80
2022-07-26T07:05:19.795Z,1.67
2022-07-26T07:07:47.705Z,1.77
2022-07-26T07:10:16.273Z,1.50
2022-07-26T07:12:47.053Z,1.50
2022-07-26T07:15:16.347Z,1.87
2022-07-26T07:17:44.391Z,1.73
2022-07-26T07:20:14.331Z,1.60
2022-07-26T07:22:42.199Z,2.10
2022-07-26T07:25:10.394Z,1.73
2022-07-26T07:27:42.811Z,1.30
2022-07-26T07:30:12.225Z,1.60
2022-07-26T07:32:41.508Z,1.50
2022-07-26T07:35:12.686Z,1.30
2022-07-26T07:37:53.212Z,1.20
2022-07-26T07:40:22.369Z,1.20
2022-07-26T07:42:50.624Z,1.43
2022-07-26T07:45:18.709Z,1.40
2022-07-26T07:47:47.996Z,1.73
2022-07-26T07:50:15.865Z,1.50
2022-07-26T07:52:46.120Z,1.60
2022-07-26T07:55:36.654Z,1.40
2022-07-26T07:58:02.142Z,1.60
2022-07-26T08:00:30.192Z,1.60
2022-07-26T08:02:59.408Z,1.67
2022-07-26T08:05:27.277Z,1.40
2022-07-26T08:07:55.121Z,1.20
2022-07-26T08:10:23.124Z,1.40
2022-07-26T08:12:51.579Z,1.83
2022-07-26T08:15:21.343Z,1.40
2022-07-26T08:17:54.645Z,1.40
2022-07-26T08:20:25.192Z,1.47
2022-07-26T08:22:53.407Z,1.40
2022-07-26T08:25:21.589Z,1.77
2022-07-26T08:28:03.137Z,1.30
2022-07-26T08:30:31.838Z,1.57
2022-07-26T08:33:00.048Z,1.33
2022-07-26T08:35:30.156Z,1.40
2022-07-26T08:37:58.346Z,1.50
2022-07-26T08:40:26.573Z,1.53
2022-07-26T08:42:56.762Z,1.67
2022-07-26T08:45:25.940Z,1.60
2022-07-26T08:48:16.618Z,1.70
2022-07-26T08:50:44.563Z,1.60
2022-07-26T08:53:13.669Z,1.53
2022-07-26T08:58:29.524Z,1.73
2022-07-26T09:01:08.733Z,1.50
2022-07-26T09:03:37.897Z,1.53
2022-07-26T09:06:18.352Z,1.90
2022-07-26T09:08:47.705Z,1.70
2022-07-26T09:11:33.146Z,1.80
2022-07-26T09:14:04.053Z,1.67
2022-07-26T09:16:35.988Z,1.60
2022-07-26T09:19:19.345Z,1.77
2022-07-26T09:21:48.684Z,1.57
2022-07-26T09:24:31.403Z,1.70
2022-07-26T09:27:00.287Z,1.87
2022-07-26T09:29:28.993Z,1.63
2022-07-26T09:32:11.242Z,1.48
2022-07-26T09:34:51.770Z,1.83
2022-07-26T09:37:34.949Z,1.70
2022-07-26T09:40:05.925Z,1.45
2022-07-26T09:42:33.785Z,1.33
2022-07-26T09:45:01.920Z,1.30
2022-07-26T09:47:37.445Z,1.35
2022-07-26T09:50:14.040Z,1.40
2022-07-26T09:52:58.643Z,1.50
2022-07-26T09:55:27.602Z,1.42
2022-07-26T09:57:59.873Z,1.45
2022-07-26T10:00:27.923Z,1.27
2022-07-26T10:02:55.664Z,1.70
2022-07-26T10:05:23.715Z,1.80
2022-07-26T10:07:53.994Z,1.92
2022-07-26T10:10:26.556Z,1.40
2022-07-26T10:12:55.413Z,1.40
2022-07-26T10:15:38.608Z,1.90
2022-07-26T10:18:08.429Z,1.80
2022-07-26T10:20:50.884Z,1.80
2022-07-26T10:23:51.361Z,1.95
2022-07-26T10:26:43.241Z,2.00
2022-07-26T10:29:28.046Z,1.90
2022-07-26T10:32:20.280Z,1.90
2022-07-26T10:34:48.734Z,1.75
2022-07-26T10:37:27.823Z,1.65
2022-07-26T10:40:22.484Z,1.70
2022-07-26T10:42:50.460Z,1.50
2022-07-26T10:45:21.044Z,1.52
2022-07-26T10:48:16.156Z,1.50
2022-07-26T10:50:46.461Z,1.90
2022-07-26T10:53:19.441Z,1.50
2022-07-26T10:55:53.297Z,1.70
2022-07-26T10:58:21.992Z,1.50
2022-07-26T11:00:58.231Z,1.60
2022-07-26T11:03:26.363Z,1.42
2022-07-26T11:05:54.268Z,1.70
2022-07-26T11:08:31.435Z,1.48
2022-07-26T11:11:00.608Z,1.48
2022-07-26T11:13:29.009Z,1.02
2022-07-26T11:16:01.787Z,1.20
2022-07-26T11:18:32.718Z,1.20
2022-07-26T11:21:10.827Z,1.20
2022-07-26T11:23:39.810Z,1.00
2022-07-26T11:26:14.994Z,1.10
2022-07-26T11:29:01.278Z,0.87
2022-07-26T11:31:51.965Z,0.80
2022-07-26T11:34:29.236Z,0.70
2022-07-26T11:36:58.632Z,0.67
2022-07-26T11:39:28.138Z,0.70
2022-07-26T11:42:01.381Z,0.60
2022-07-26T11:44:29.878Z,0.63
2022-07-26T11:46:58.509Z,0.40
2022-07-26T11:50:01.129Z,0.73
2022-07-26T11:52:24.894Z,0.60
2022-07-26T11:59:03.962Z,0.70
2022-07-26T12:01:32.650Z,1.00
2022-07-26T12:04:00.629Z,0.90
2022-07-26T12:06:29.108Z,1.00
2022-07-26T12:08:59.536Z,0.90
2022-07-26T12:11:38.818Z,1.10
2022-07-26T12:14:08.502Z,1.07
2022-07-26T12:16:42.741Z,1.00
2022-07-26T12:19:23.654Z,0.93
2022-07-26T12:21:53.049Z,0.90
2022-07-26T12:24:43.171Z,0.80
2022-07-26T12:27:13.617Z,0.80
2022-07-26T12:29:46.405Z,0.77
2022-07-26T12:32:16.310Z,0.80
2022-07-26T12:34:56.703Z,0.80
2022-07-26T12:37:32.585Z,0.73
2022-07-26T12:40:10.735Z,0.80
2022-07-26T12:42:40.522Z,0.70
2022-07-26T12:45:12.321Z,0.70
2022-07-26T12:47:44.201Z,0.80
2022-07-26T12:50:13.684Z,0.60
2022-07-26T12:52:42.470Z,0.80
2022-07-26T12:55:14.991Z,0.85
2022-07-26T12:57:47.725Z,0.82
2022-07-26T13:00:19.240Z,0.80
2022-07-26T13:02:47.808Z,0.70
2022-07-26T13:05:16.389Z,0.80
2022-07-26T13:07:44.528Z,0.95
2022-07-26T13:13:00.939Z,0.80
2022-07-26T13:15:36.261Z,0.80
2022-07-26T13:18:08.220Z,0.52
2022-07-26T13:20:38.614Z,0.60
2022-07-26T13:23:09.765Z,0.80
2022-07-26T13:25:40.434Z,0.90
2022-07-26T13:28:09.317Z,0.70
2022-07-26T13:30:43.054Z,0.73
2022-07-26T13:33:11.685Z,0.82
2022-07-26T13:35:41.034Z,0.77
2022-07-26T13:38:09.977Z,0.57
2022-07-26T13:40:38.163Z,0.80
2022-07-26T13:43:06.273Z,0.55
2022-07-26T13:45:34.740Z,0.73
2022-07-26T13:48:05.441Z,0.80
2022-07-26T13:50:33.344Z,0.80
2022-07-26T13:53:01.233Z,0.70
2022-07-26T13:55:29.174Z,0.73
2022-07-26T13:57:58.154Z,0.57
2022-07-26T14:00:27.498Z,0.52
2022-07-26T14:02:56.082Z,0.65
2022-07-26T14:05:26.078Z,0.60
2022-07-26T14:07:54.582Z,0.77
2022-07-26T14:10:24.486Z,0.65
2022-07-26T14:12:53.506Z,0.50
2022-07-26T14:15:27.082Z,0.60
2022-07-26T14:17:55.009Z,0.60
2022-07-26T14:20:22.947Z,0.60
2022-07-26T14:22:53.896Z,0.52
2022-07-26T14:25:22.257Z,0.70
2022-07-26T14:27:50.970Z,0.40
2022-07-26T14:30:19.154Z,0.60
2022-07-26T14:32:47.081Z,0.60
2022-07-26T14:35:16.571Z,0.80
2022-07-26T14:37:45.688Z,0.60
2022-07-26T14:40:17.877Z,0.50
2022-07-26T14:42:46.862Z,0.60
2022-07-26T14:45:16.018Z,0.47
2022-07-26T14:47:44.578Z,0.50
2022-07-26T14:50:13.931Z,0.57
2022-07-26T14:52:43.471Z,0.40
2022-07-26T14:55:12.264Z,0.68
2022-07-26T14:57:41.891Z,0.80
2022-07-26T15:00:12.659Z,0.50
2022-07-26T15:02:41.396Z,0.60
2022-07-26T15:05:10.278Z,0.60
2022-07-26T15:07:38.761Z,0.47
2022-07-26T15:10:08.335Z,0.60
2022-07-26T15:12:36.263Z,0.50
2022-07-26T15:15:07.293Z,0.30
2022-07-26T15:17:35.800Z,0.40
2022-07-26T15:20:05.394Z,0.52
2022-07-26T15:22:33.443Z,0.60
2022-07-26T15:25:01.316Z,0.50
2022-07-26T15:27:29.145Z,0.47
2022-07-26T15:30:02.847Z,0.70
2022-07-26T15:32:36.734Z,0.40
2022-07-26T15:35:05.646Z,0.50
2022-07-26T15:37:35.485Z,0.68
2022-07-26T15:40:06.322Z,0.40
2022-07-26T15:42:59.947Z,0.47
2022-07-26T15:45:30.359Z,0.52
2022-07-26T15:48:14.920Z,0.57
2022-07-26T15:50:55.920Z,0.60
2022-07-26T15:53:32.211Z,0.43
2022-07-26T15:56:06.154Z,0.65
2022-07-26T15:58:34.974Z,0.40
2022-07-26T16:01:04.859Z,0.45
2022-07-26T16:03:35.501Z,0.40
2022-07-26T16:06:05.981Z,0.38
2022-07-26T16:08:43.078Z,0.43
2022-07-26T16:11:22.879Z,0.52
2022-07-26T16:13:50.893Z,0.60
2022-07-26T16:16:30.353Z,0.40
2022-07-26T16:18:59.735Z,0.50
2022-07-26T16:21:27.693Z,0.70
2022-07-26T16:23:55.585Z,0.70
2022-07-26T16:26:23.950Z,0.38
2022-07-26T16:28:51.795Z,0.52
2022-07-26T16:31:19.817Z,0.50
2022-07-26T16:33:48.642Z,0.50
2022-07-26T16:36:17.794Z,0.60
2022-07-26T16:38:45.651Z,0.65
2022-07-26T16:41:13.474Z,0.60
2022-07-26T16:43:41.567Z,0.32
2022-07-26T16:46:09.793Z,0.40
2022-07-26T16:48:38.002Z,0.40
2022-07-26T16:51:06.137Z,0.43
2022-07-26T16:53:35.379Z,0.40
2022-07-26T16:56:03.197Z,0.40
2022-07-26T16:58:31.094Z,0.60
2022-07-26T17:00:59.116Z,0.57
2022-07-26T17:03:28.133Z,0.50
2022-07-26T17:05:56.035Z,0.50
2022-07-26T17:08:25.222Z,0.47
2022-07-26T17:10:54.379Z,0.43
2022-07-26T17:13:22.352Z,0.40
2022-07-26T17:15:50.911Z,0.47
2022-07-26T17:18:28.803Z,0.40
2022-07-26T17:21:06.005Z,0.50
2022-07-26T17:23:36.404Z,0.32
2022-07-26T17:26:05.675Z,0.60
2022-07-26T17:28:33.676Z,0.47
2022-07-26T17:31:01.622Z,0.50
2022-07-26T17:33:29.710Z,0.23
2022-07-26T17:35:58.780Z,0.50
2022-07-26T17:38:31.355Z,0.67
2022-07-26T17:40:59.306Z,0.63
2022-07-26T17:43:36.795Z,0.40
2022-07-26T17:46:05.388Z,0.33
2022-07-26T17:48:33.559Z,0.40
2022-07-26T17:51:01.409Z,0.50
2022-07-26T17:53:34.207Z,0.60
2022-07-26T17:56:02.970Z,0.50
2022-07-26T17:58:32.566Z,0.53
2022-07-26T18:01:00.625Z,0.43
2022-07-26T18:03:28.521Z,0.50
2022-07-26T18:05:56.492Z,0.37
2022-07-26T18:08:27.181Z,0.50
2022-07-26T18:10:55.412Z,0.40
2022-07-26T18:13:23.999Z,0.57
2022-07-26T18:15:53.361Z,0.30
2022-07-26T18:18:21.739Z,0.40
2022-07-26T18:20:49.729Z,0.50
2022-07-26T18:23:17.633Z,0.40
2022-07-26T18:25:45.506Z,0.50
2022-07-26T18:28:13.579Z,0.50
2022-07-26T18:30:41.441Z,0.40
2022-07-26T18:33:12.087Z,0.60
2022-07-26T18:35:39.933Z,0.30
2022-07-26T18:38:07.902Z,0.53
2022-07-26T18:40:35.759Z,0.40
2022-07-26T18:43:03.771Z,0.40
2022-07-26T18:45:31.633Z,0.87
2022-07-26T18:47:59.947Z,0.40
2022-07-26T18:50:31.104Z,0.70
2022-07-26T18:53:00.704Z,0.63
2022-07-26T18:55:28.760Z,0.50
2022-07-26T18:57:56.940Z,0.50
2022-07-26T19:00:25.172Z,0.50
2022-07-26T19:02:54.495Z,0.40
2022-07-26T19:05:23.819Z,0.60
2022-07-26T19:07:53.245Z,0.63
2022-07-26T19:10:21.317Z,0.63
2022-07-26T19:12:52.665Z,0.20
2022-07-26T19:15:20.534Z,0.33
2022-07-26T19:17:48.565Z,0.63
2022-07-26T19:20:16.418Z,0.60
2022-07-26T19:22:47.146Z,0.33
2022-07-26T19:25:16.405Z,0.50
2022-07-26T19:27:44.787Z,0.40
2022-07-26T19:30:13.378Z,0.50
2022-07-26T19:32:41.650Z,0.60
2022-07-26T19:35:10.592Z,0.50
2022-07-26T19:37:38.462Z,0.70
2022-07-26T19:40:07.764Z,0.67
2022-07-26T19:42:37.097Z,0.60
2022-07-26T19:45:05.421Z,0.97
2022-07-26T19:47:35.657Z,0.60
2022-07-26T19:50:03.671Z,0.60
2022-07-26T19:52:31.637Z,0.67
2022-07-26T19:54:59.553Z,0.73
2022-07-26T19:57:27.432Z,0.70
2022-07-26T19:59:56.908Z,0.53
2022-07-26T20:02:25.006Z,0.60
2022-07-26T20:04:52.984Z,0.60
2022-07-26T20:07:20.918Z,0.70
2022-07-26T20:09:49.209Z,0.50
2022-07-26T20:12:17.262Z,0.70
2022-07-26T20:14:45.506Z,0.70
2022-07-26T20:17:15.026Z,0.90
2022-07-26T20:19:43.096Z,0.47
2022-07-26T20:22:11.373Z,0.60
2022-07-26T20:24:39.395Z,0.73
2022-07-26T20:27:07.705Z,0.70
2022-07-26T20:29:35.786Z,0.50
2022-07-26T20:32:04.055Z,0.53
2022-07-26T20:34:33.320Z,0.60
2022-07-26T20:37:01.208Z,0.50
2022-07-26T20:39:29.638Z,0.50
2022-07-26T20:41:58.255Z,0.53
2022-07-26T20:44:28.549Z,0.50
2022-07-26T20:46:56.915Z,0.80
2022-07-26T20:49:24.873Z,0.50
2022-07-26T20:51:54.374Z,0.50
2022-07-26T20:54:22.384Z,0.60
2022-07-26T20:56:50.671Z,0.60
2022-07-26T20:59:18.514Z,0.50
2022-07-26T21:01:46.655Z,0.60
2022-07-26T21:04:14.594Z,0.80
2022-07-26T21:06:42.960Z,0.40
2022-07-26T21:09:12.634Z,0.50
2022-07-26T21:11:40.897Z,0.60
2022-07-26T21:14:08.759Z,0.50
2022-07-26T21:16:37.044Z,0.50
2022-07-26T21:19:05.628Z,0.50
2022-07-26T21:21:34.758Z,0.77
2022-07-26T21:24:02.760Z,0.60
2022-07-26T21:26:31.956Z,0.40
2022-07-26T21:28:59.912Z,0.50
2022-07-26T21:31:27.836Z,0.53
2022-07-26T21:33:55.696Z,0.50
2022-07-26T21:36:23.601Z,0.37
2022-07-26T21:38:51.425Z,0.63
2022-07-26T21:41:19.317Z,0.50
2022-07-26T21:43:48.683Z,0.63
2022-07-26T21:46:16.705Z,0.70
2022-07-26T21:48:44.682Z,0.50
2022-07-26T21:51:12.604Z,0.70
2022-07-26T21:53:40.412Z,0.60
2022-07-26T21:56:08.295Z,0.67
2022-07-26T21:58:37.051Z,0.50
2022-07-26T22:01:07.376Z,0.70
2022-07-26T22:03:37.023Z,0.70
2022-07-26T22:06:06.405Z,0.50
2022-07-26T22:08:34.933Z,0.70
2022-07-26T22:11:02.910Z,0.50
2022-07-26T22:13:30.798Z,0.50
2022-07-26T22:15:58.759Z,0.40
2022-07-26T22:18:28.093Z,0.50
2022-07-26T22:20:56.566Z,0.60
2022-07-26T22:23:30.014Z,0.60
2022-07-26T22:25:59.225Z,0.60
2022-07-26T22:28:27.199Z,0.40
2022-07-26T22:30:55.679Z,0.60
2022-07-26T22:33:24.070Z,0.50
2022-07-26T22:35:53.913Z,0.57
2022-07-26T22:38:21.924Z,0.50
2022-07-26T22:40:50.047Z,0.40
2022-07-26T22:43:18.918Z,0.50
2022-07-26T22:45:46.832Z,0.40
2022-07-26T22:48:14.823Z,0.50
2022-07-26T22:50:42.727Z,0.50
2022-07-26T22:53:12.137Z,0.23
2022-07-26T22:55:40.121Z,0.40
2022-07-26T22:58:07.943Z,0.50
2022-07-26T23:00:35.898Z,0.27
2022-07-26T23:03:04.372Z,0.40
2022-07-26T23:05:45.803Z,0.40
2022-07-26T23:08:45.956Z,0.43
2022-07-26T23:11:05.256Z,0.60
2022-07-26T23:13:33.580Z,0.20
2022-07-26T23:16:01.988Z,0.30
2022-07-26T23:18:31.432Z,0.13
2022-07-26T23:20:59.339Z,0.40
2022-07-26T23:23:29.893Z,0.27
2022-07-26T23:25:59.112Z,0.40
2022-07-26T23:28:37.394Z,0.40
2022-07-26T23:31:10.826Z,0.40
2022-07-26T23:33:50.714Z,0.40
2022-07-26T23:36:21.623Z,0.20
2022-07-26T23:38:50.889Z,0.30
2022-07-26T23:41:19.029Z,0.23
2022-07-26T23:43:46.895Z,0.50
2022-07-26T23:46:14.834Z,0.20
2022-07-26T23:48:42.829Z,0.30
2022-07-26T23:51:10.729Z,0.20
2022-07-26T23:53:38.651Z,0.40
2022-07-26T23:56:08.058Z,0.40
2022-07-26T23:58:35.920Z,0.30
